Huvudsida
METAR-TAF:

METAR-TAF

Flygplatser :

Helsingfors-Vanda flygplats

Helsingfors, Finland

latitud: 60-19N, longitud: 024-58E, höjd: 51 m

Aktuellt väderrapport

Denna rapport gjordes för 19 minuter sedan, klockan 03:50 UTC
Vind 8 kt från syd/sydväst
Temperatur 1°C
Fuktighet 100%
Tryck 1010 hPa
Sikt: 3000 m
Mulet på en höjd av 200 ft
fuktdis

METAR: EFHK 160350Z 21008KT 3000 BR OVC002 01/01 Q1010 BECMG 9999

Tid: 06:09 (04:09 UTC)

Väderprognos

Denna rapport gjordes för 1 timme och 38 minuter sedan, klockan 02:31 UTC
Prognos gäller från 16 kl. 03 UTC till 17 kl. 03 UTC
Vind 6 kt från syd/sydväst
Sikt: 0300 m
på en höjd av 100 ft
underkyld dimma
Blir
från 16 kl. 03 UTC till 16 kl. 05 UTC
Sikt 10 km eller mer
Brutna moln på en höjd av 500 ft
Blir
från 16 kl. 05 UTC till 16 kl. 07 UTC
Sikt 10 km eller mer
Inga moln under 1 500 m eller inga cumulonimbus

TAF: EFHK 160231Z 1603/1703 20006KT 0300 FZFG VV001 BECMG 1603/1605 9999 NSW BKN005 BECMG 1605/1607 CAVOK

Aktuella väderrapporter och prognoser från 4000 flygplatser (METAR- och TAF-rapporter).

De tillgängliga stationerna syns som gula och röda prickar på kartan.

För musen över prickarna för att se namnen på stationerna.

Klicka sedan för att få väderrapporter och prognoser.

För att ändra kartan: Klicka på de gröna knapparna med ett svart kors på för att zooma in; den gröna knappen med ett streck på för att zooma ut; eller på de gröna pilarna för angränsande kartor.


METAR-TAF: